createdAt,value
2022-10-15T00:00:47.010Z,95985.13
2022-10-15T00:03:14.493Z,95985.88
2022-10-15T00:05:42.015Z,95988.50
2022-10-15T00:08:09.887Z,95985.88
2022-10-15T00:10:36.702Z,95979.13
2022-10-15T00:13:04.511Z,95979.53
2022-10-15T00:15:31.414Z,95972.44
2022-10-15T00:17:58.546Z,95979.91
2022-10-15T00:20:25.202Z,95982.56
2022-10-15T00:22:51.758Z,95983.28
2022-10-15T00:25:18.310Z,95979.53
2022-10-15T00:27:44.893Z,95980.28
2022-10-15T00:30:12.071Z,95975.44
2022-10-15T00:32:38.644Z,95967.22
2022-10-15T00:35:06.951Z,95972.44
2022-10-15T00:37:33.535Z,95963.47
2022-10-15T00:40:00.465Z,95975.03
2022-10-15T00:42:27.076Z,95970.53
2022-10-15T00:44:57.780Z,95970.19
2022-10-15T00:47:39.001Z,95984.72
2022-10-15T00:50:12.637Z,95982.50
2022-10-15T00:53:03.583Z,95973.19
2022-10-15T00:55:34.492Z,95970.94
2022-10-15T00:58:07.628Z,95970.94
2022-10-15T01:00:34.662Z,95973.91
2022-10-15T01:03:01.413Z,95964.97
2022-10-15T01:05:29.015Z,95959.69
2022-10-15T01:07:55.541Z,95953.75
2022-10-15T01:10:25.116Z,95951.84
2022-10-15T01:13:20.141Z,95949.25
2022-10-15T01:16:02.394Z,95952.25
2022-10-15T01:18:43.126Z,95954.88
2022-10-15T01:21:25.430Z,95957.06
2022-10-15T01:24:23.405Z,95960.84
2022-10-15T01:27:11.903Z,95960.09
2022-10-15T01:29:50.394Z,95958.97
2022-10-15T01:32:28.603Z,95962.72
2022-10-15T01:35:20.057Z,95955.63
2022-10-15T01:37:57.205Z,95959.75
2022-10-15T01:40:31.350Z,95948.16
2022-10-15T01:43:00.114Z,95943.28
2022-10-15T01:45:42.307Z,95947.38
2022-10-15T01:48:34.757Z,95941.81
2022-10-15T01:51:05.359Z,95935.50
2022-10-15T01:53:34.988Z,95928.75
2022-10-15T01:56:06.316Z,95932.88
2022-10-15T01:58:35.601Z,95937.31
2022-10-15T02:01:06.484Z,95945.56
2022-10-15T02:03:52.847Z,95951.91
2022-10-15T02:06:21.977Z,95945.22
2022-10-15T02:09:03.899Z,95944.44
2022-10-15T02:11:35.549Z,95948.19
2022-10-15T02:14:31.419Z,95948.19
2022-10-15T02:17:08.375Z,95959.34
2022-10-15T02:19:51.731Z,95953.00
2022-10-15T02:22:24.372Z,95950.03
2022-10-15T02:24:58.537Z,95944.44
2022-10-15T02:27:27.173Z,95935.50
2022-10-15T02:29:57.032Z,95934.38
2022-10-15T02:32:25.728Z,95932.88
2022-10-15T02:34:53.637Z,95935.09
2022-10-15T02:37:22.439Z,95947.03
2022-10-15T02:39:49.046Z,95937.72
2022-10-15T02:42:18.042Z,95930.25
2022-10-15T02:44:44.598Z,95935.84
2022-10-15T02:47:12.011Z,95936.22
2022-10-15T02:49:39.620Z,95940.34
2022-10-15T02:52:07.052Z,95932.88
2022-10-15T02:54:33.697Z,95937.72
2022-10-15T02:57:00.723Z,95939.56
2022-10-15T02:59:27.403Z,95942.56
2022-10-15T03:01:55.105Z,95935.50
2022-10-15T03:04:22.030Z,95940.31
2022-10-15T03:06:48.653Z,95947.44
2022-10-15T03:09:15.233Z,95950.03
2022-10-15T03:11:41.800Z,95955.69
2022-10-15T03:14:09.282Z,95950.03
2022-10-15T03:16:35.848Z,95944.06
2022-10-15T03:19:02.473Z,95947.44
2022-10-15T03:21:31.126Z,95951.91
2022-10-15T03:24:04.553Z,95948.94
2022-10-15T03:26:31.677Z,95948.19
2022-10-15T03:28:58.456Z,95959.34
2022-10-15T03:31:34.378Z,95959.34
2022-10-15T03:34:03.243Z,95960.84
2022-10-15T03:36:30.499Z,95962.38
2022-10-15T03:38:57.081Z,95966.47
2022-10-15T03:41:23.719Z,95959.75
2022-10-15T03:43:51.482Z,95963.13
2022-10-15T03:46:18.063Z,95956.41
2022-10-15T03:48:50.841Z,95950.03
2022-10-15T03:51:22.781Z,95958.63
2022-10-15T03:53:56.146Z,95949.31
2022-10-15T03:56:22.691Z,95950.75
2022-10-15T03:58:49.802Z,95963.09
2022-10-15T04:01:18.313Z,95961.97
2022-10-15T04:03:45.505Z,95967.53
2022-10-15T04:06:15.156Z,95970.91
2022-10-15T04:08:42.020Z,95973.53
2022-10-15T04:11:21.335Z,95979.88
2022-10-15T04:13:56.590Z,95981.38
2022-10-15T04:16:23.299Z,95987.34
2022-10-15T04:18:50.106Z,95984.34
2022-10-15T04:21:16.692Z,95976.53
2022-10-15T04:23:48.478Z,95967.19
2022-10-15T04:26:26.849Z,95983.19
2022-10-15T04:28:53.675Z,95989.16
2022-10-15T04:31:22.213Z,95993.25
2022-10-15T04:33:49.746Z,96001.06
2022-10-15T04:39:00.534Z,96001.44
2022-10-15T04:41:36.797Z,95995.06
2022-10-15T04:44:13.258Z,95993.19
2022-10-15T04:46:42.636Z,95988.69
2022-10-15T04:49:24.584Z,95995.81
2022-10-15T04:51:51.600Z,95996.16
2022-10-15T04:54:22.315Z,95990.50
2022-10-15T04:57:03.673Z,95992.03
2022-10-15T04:59:30.710Z,96002.06
2022-10-15T05:02:35.509Z,96007.28
2022-10-15T05:05:14.356Z,96006.91
2022-10-15T05:07:49.833Z,96003.53
2022-10-15T05:10:16.541Z,95985.25
2022-10-15T05:12:45.928Z,95996.44
2022-10-15T05:15:13.095Z,95993.13
2022-10-15T05:17:40.061Z,96009.16
2022-10-15T05:20:08.277Z,96019.97
2022-10-15T05:22:35.400Z,96020.34
2022-10-15T05:25:02.994Z,96023.72
2022-10-15T05:27:35.108Z,96019.97
2022-10-15T05:30:04.714Z,96031.81
2022-10-15T05:32:40.138Z,96016.91
2022-10-15T05:35:10.638Z,96016.19
2022-10-15T05:37:54.817Z,96018.44
2022-10-15T05:40:22.513Z,96036.34
2022-10-15T05:43:18.044Z,96042.31
2022-10-15T05:45:44.644Z,96050.50
2022-10-15T05:48:11.249Z,96060.59
2022-10-15T05:50:37.879Z,96056.09
2022-10-15T05:53:08.327Z,96066.19
2022-10-15T05:55:41.575Z,96069.16
2022-10-15T05:58:08.146Z,96059.13
2022-10-15T06:00:35.705Z,96065.06
2022-10-15T06:03:02.324Z,96057.97
2022-10-15T06:05:28.961Z,96065.44
2022-10-15T06:07:56.676Z,96068.81
2022-10-15T06:10:26.189Z,96066.53
2022-10-15T06:12:52.819Z,96067.69
2022-10-15T06:15:19.867Z,96067.69
2022-10-15T06:17:46.415Z,96065.78
2022-10-15T06:20:13.882Z,96068.38
2022-10-15T06:22:40.518Z,96076.53
2022-10-15T06:25:07.817Z,96073.19
2022-10-15T06:27:34.411Z,96078.75
2022-10-15T06:30:01.058Z,96085.91
2022-10-15T06:32:27.670Z,96085.50
2022-10-15T06:34:54.250Z,96088.16
2022-10-15T06:37:21.128Z,96089.69
2022-10-15T06:39:47.839Z,96091.56
2022-10-15T06:42:14.390Z,96098.28
2022-10-15T06:44:41.240Z,96088.63
2022-10-15T06:47:08.701Z,96095.72
2022-10-15T06:49:35.352Z,96103.22
2022-10-15T06:52:03.494Z,96105.84
2022-10-15T06:54:30.705Z,96102.13
2022-10-15T06:56:57.342Z,96106.22
2022-10-15T06:59:23.898Z,96104.38
2022-10-15T07:01:50.446Z,96112.19
2022-10-15T07:04:16.984Z,96110.00
2022-10-15T07:06:43.898Z,96110.75
2022-10-15T07:09:10.523Z,96103.66
2022-10-15T07:11:37.155Z,96112.25
2022-10-15T07:14:03.739Z,96114.94
2022-10-15T07:16:30.558Z,96120.59
2022-10-15T07:18:57.097Z,96120.25
2022-10-15T07:21:23.771Z,96122.13
2022-10-15T07:23:50.311Z,96132.69
2022-10-15T07:26:16.883Z,96128.63
2022-10-15T07:28:43.550Z,96123.91
2022-10-15T07:31:10.307Z,96111.28
2022-10-15T07:33:37.353Z,96116.50
2022-10-15T07:36:09.939Z,96115.84
2022-10-15T07:38:37.240Z,96107.69
2022-10-15T07:41:05.297Z,96121.09
2022-10-15T07:43:37.758Z,96130.47
2022-10-15T07:46:04.644Z,96135.69
2022-10-15T07:48:31.654Z,96139.81
2022-10-15T07:51:00.778Z,96130.50
2022-10-15T07:53:27.900Z,96133.88
2022-10-15T07:56:03.762Z,96130.53
2022-10-15T07:58:34.740Z,96125.34
2022-10-15T08:01:06.258Z,96118.66
2022-10-15T08:03:34.161Z,96122.00
2022-10-15T08:06:02.259Z,96113.84
2022-10-15T08:08:29.731Z,96117.22
2022-10-15T08:10:56.798Z,96116.47
2022-10-15T08:13:24.267Z,96117.97
2022-10-15T08:15:57.654Z,96118.38
2022-10-15T08:18:27.108Z,96117.66
2022-10-15T08:20:53.688Z,96113.50
2022-10-15T08:23:20.266Z,96121.03
2022-10-15T08:25:46.862Z,96113.59
2022-10-15T08:28:14.177Z,96120.66
2022-10-15T08:30:40.796Z,96119.19
2022-10-15T08:33:12.313Z,96122.22
2022-10-15T08:35:43.648Z,96134.09
2022-10-15T08:38:14.715Z,96141.22
2022-10-15T08:40:55.287Z,96143.88
2022-10-15T08:43:26.490Z,96137.09
2022-10-15T08:45:57.792Z,96137.47
2022-10-15T08:48:55.164Z,96136.69
2022-10-15T08:51:24.347Z,96137.88
2022-10-15T08:53:57.610Z,96142.75
2022-10-15T08:56:30.143Z,96133.81
2022-10-15T08:59:27.728Z,96122.63
2022-10-15T09:02:17.615Z,96120.44
2022-10-15T09:04:55.678Z,96107.00
2022-10-15T09:08:04.194Z,96115.59
2022-10-15T09:10:43.642Z,96133.94
2022-10-15T09:13:33.568Z,96139.97
2022-10-15T09:16:05.336Z,96151.19
2022-10-15T09:18:34.188Z,96167.28
2022-10-15T09:21:04.362Z,96200.31
2022-10-15T09:23:33.897Z,96216.78
2022-10-15T09:26:08.790Z,96217.16
2022-10-15T09:28:56.936Z,96231.38
2022-10-15T09:31:32.419Z,96231.38
2022-10-15T09:34:27.086Z,96217.16
2022-10-15T09:36:58.577Z,96208.53
2022-10-15T09:39:58.611Z,96218.28
2022-10-15T09:42:38.033Z,96232.91
2022-10-15T09:45:13.459Z,96235.53
2022-10-15T09:47:41.858Z,96258.03
2022-10-15T09:50:11.508Z,96260.63
2022-10-15T09:52:56.320Z,96279.78
2022-10-15T09:55:42.764Z,96309.00
2022-10-15T09:58:18.560Z,96306.00
2022-10-15T10:00:51.112Z,96302.25
2022-10-15T10:03:17.834Z,96319.13
2022-10-15T10:05:45.937Z,96328.88
2022-10-15T10:08:24.334Z,96341.94
2022-10-15T10:10:59.109Z,96313.47
2022-10-15T10:13:30.176Z,96343.44
2022-10-15T10:16:02.948Z,96292.16
2022-10-15T10:18:31.454Z,96291.00
2022-10-15T10:21:01.703Z,96288.75
2022-10-15T10:23:38.093Z,96295.50
2022-10-15T10:26:10.461Z,96292.50
2022-10-15T10:28:44.131Z,96283.53
2022-10-15T10:31:12.012Z,96301.91
2022-10-15T10:33:48.151Z,96297.78
2022-10-15T10:36:28.477Z,96303.03
2022-10-15T10:39:17.763Z,96308.63
2022-10-15T10:41:56.725Z,96325.91
2022-10-15T10:44:28.115Z,96306.00
2022-10-15T10:47:19.800Z,96301.13
2022-10-15T10:49:51.938Z,96329.66
2022-10-15T10:52:38.975Z,96331.16
2022-10-15T10:55:07.686Z,96336.41
2022-10-15T10:57:45.550Z,96355.53
2022-10-15T11:00:17.269Z,96352.50
2022-10-15T11:02:49.090Z,96369.31
2022-10-15T11:05:19.607Z,96391.16
2022-10-15T11:07:57.003Z,96384.38
2022-10-15T11:10:31.640Z,96397.13
2022-10-15T11:13:30.380Z,96408.41
2022-10-15T11:16:25.788Z,96426.03
2022-10-15T11:19:13.651Z,96415.84
2022-10-15T11:22:01.697Z,96415.78
2022-10-15T11:24:48.653Z,96439.44
2022-10-15T11:27:21.651Z,96436.44
2022-10-15T11:29:58.688Z,96448.84
2022-10-15T11:33:05.420Z,96474.06
2022-10-15T11:35:52.384Z,96474.09
2022-10-15T11:38:38.220Z,96463.94
2022-10-15T11:41:23.880Z,96475.63
2022-10-15T11:43:50.375Z,96465.13
2022-10-15T11:46:44.078Z,96471.88
2022-10-15T11:49:42.559Z,96460.19
2022-10-15T11:52:35.743Z,96451.97
2022-10-15T11:55:29.045Z,96419.66
2022-10-15T11:58:01.572Z,96420.38
2022-10-15T12:00:40.695Z,96420.78
2022-10-15T12:03:15.453Z,96395.97
2022-10-15T12:05:50.071Z,96415.50
2022-10-15T12:08:17.778Z,96418.13
2022-10-15T12:11:19.745Z,96394.44
2022-10-15T12:14:02.587Z,96390.31
2022-10-15T12:16:56.146Z,96407.25
2022-10-15T12:19:32.673Z,96407.63
2022-10-15T12:22:11.319Z,96405.00
2022-10-15T12:24:47.530Z,96409.91
2022-10-15T12:27:20.041Z,96408.03
2022-10-15T12:30:12.894Z,96408.38
2022-10-15T12:32:48.777Z,96414.41
2022-10-15T12:35:15.394Z,96409.91
2022-10-15T12:37:44.784Z,96398.25
2022-10-15T12:40:28.875Z,96417.78
2022-10-15T12:43:14.524Z,96403.13
2022-10-15T12:45:54.910Z,96406.16
2022-10-15T12:48:36.171Z,96396.38
2022-10-15T12:51:24.237Z,96420.00
2022-10-15T12:53:52.712Z,96420.38
2022-10-15T12:56:25.147Z,96414.78
2022-10-15T12:58:53.776Z,96411.38
2022-10-15T13:01:20.593Z,96395.19
2022-10-15T13:03:53.100Z,96397.47
2022-10-15T13:06:25.351Z,96404.19
2022-10-15T13:08:54.338Z,96428.63
2022-10-15T13:11:25.424Z,96423.28
2022-10-15T13:13:56.555Z,96448.91
2022-10-15T13:16:23.308Z,96433.88
2022-10-15T13:18:52.846Z,96449.63
2022-10-15T13:21:19.628Z,96449.66
2022-10-15T13:23:51.122Z,96399.28
2022-10-15T13:26:25.579Z,96356.50
2022-10-15T13:28:54.972Z,96340.34
2022-10-15T13:31:30.555Z,96359.88
2022-10-15T13:34:14.067Z,96367.41
2022-10-15T13:36:40.846Z,96350.19
2022-10-15T13:39:22.826Z,96331.00
2022-10-15T13:41:49.916Z,96323.47
2022-10-15T13:44:24.025Z,96259.25
2022-10-15T13:46:51.346Z,96235.88
2022-10-15T13:49:20.439Z,96227.66
2022-10-15T13:51:50.713Z,96238.88
2022-10-15T13:54:23.802Z,96229.09
2022-10-15T13:56:57.688Z,96268.19
2022-10-15T13:59:24.796Z,96294.81
2022-10-15T14:02:00.976Z,96309.53
2022-10-15T14:04:32.663Z,96319.31
2022-10-15T14:07:04.294Z,96377.50
2022-10-15T14:09:37.045Z,96360.19
2022-10-15T14:12:08.405Z,96368.47
2022-10-15T14:14:45.135Z,96280.16
2022-10-15T14:17:21.025Z,96266.31
2022-10-15T14:20:02.118Z,96278.66
2022-10-15T14:22:42.501Z,96293.00
2022-10-15T14:27:57.379Z,96271.22
2022-10-15T14:30:36.702Z,96276.84
2022-10-15T14:33:03.859Z,96338.06
2022-10-15T14:35:35.846Z,96336.91
2022-10-15T14:38:09.591Z,96318.91
2022-10-15T14:40:36.461Z,96310.66
2022-10-15T14:43:16.058Z,96297.94
2022-10-15T14:45:56.885Z,96293.38
2022-10-15T14:48:34.413Z,96325.63
2022-10-15T14:51:06.350Z,96305.41
2022-10-15T14:53:39.173Z,96326.81
2022-10-15T14:56:16.366Z,96308.03
2022-10-15T14:58:53.262Z,96312.56
2022-10-15T15:01:21.057Z,96311.03
2022-10-15T15:03:53.608Z,96315.19
2022-10-15T15:06:20.450Z,96296.44
2022-10-15T15:08:47.052Z,96302.09
2022-10-15T15:11:20.581Z,96300.25
2022-10-15T15:13:48.722Z,96289.38
2022-10-15T15:16:17.567Z,96290.09
2022-10-15T15:18:46.377Z,96280.66
2022-10-15T15:21:17.211Z,96276.53
2022-10-15T15:23:44.229Z,96270.97
2022-10-15T15:26:10.786Z,96281.06
2022-10-15T15:28:37.378Z,96276.22
2022-10-15T15:31:07.673Z,96240.94
2022-10-15T15:33:34.989Z,96222.22
2022-10-15T15:36:09.633Z,96213.56
2022-10-15T15:41:11.886Z,96209.13
2022-10-15T15:43:38.751Z,96215.09
2022-10-15T15:46:05.501Z,96209.50
2022-10-15T15:48:32.058Z,96233.50
2022-10-15T15:51:04.943Z,96229.03
2022-10-15T15:53:31.983Z,96233.91
2022-10-15T15:55:58.735Z,96236.88
2022-10-15T15:58:25.298Z,96232.81
2022-10-15T16:00:51.879Z,96213.66
2022-10-15T16:03:18.497Z,96183.28
2022-10-15T16:05:45.211Z,96193.81
2022-10-15T16:08:13.135Z,96187.78
2022-10-15T16:10:39.815Z,96181.81
2022-10-15T16:13:06.379Z,96211.09
2022-10-15T16:15:32.921Z,96215.97
2022-10-15T16:17:59.497Z,96208.84
2022-10-15T16:20:26.089Z,96217.09
2022-10-15T16:22:53.208Z,96212.97
2022-10-15T16:25:20.376Z,96203.97
2022-10-15T16:27:51.731Z,96226.81
2022-10-15T16:30:19.329Z,96256.13
2022-10-15T16:32:46.223Z,96273.38
2022-10-15T16:35:12.787Z,96261.34
2022-10-15T16:37:39.584Z,96255.75
2022-10-15T16:40:06.895Z,96256.13
2022-10-15T16:42:33.602Z,96252.03
2022-10-15T16:45:00.288Z,96265.53
2022-10-15T16:47:27.400Z,96267.00
2022-10-15T16:49:55.528Z,96280.91
2022-10-15T16:52:22.593Z,96287.28
2022-10-15T16:54:49.390Z,96300.03
2022-10-15T16:57:15.930Z,96292.16
2022-10-15T16:59:42.553Z,96295.50
2022-10-15T17:02:10.135Z,96304.13
2022-10-15T17:04:36.769Z,96311.28
2022-10-15T17:07:03.437Z,96324.41
2022-10-15T17:09:31.089Z,96303.75
2022-10-15T17:11:57.747Z,96297.41
2022-10-15T17:14:24.302Z,96300.75
2022-10-15T17:16:52.720Z,96300.00
2022-10-15T17:19:21.920Z,96291.38
2022-10-15T17:21:48.529Z,96291.75
2022-10-15T17:24:16.947Z,96304.84
2022-10-15T17:26:45.040Z,96310.47
2022-10-15T17:29:16.508Z,96305.19
2022-10-15T17:31:43.237Z,96298.81
2022-10-15T17:34:11.407Z,96295.81
2022-10-15T17:36:43.201Z,96294.28
2022-10-15T17:39:11.438Z,96289.03
2022-10-15T17:41:37.956Z,96281.56
2022-10-15T17:44:04.641Z,96290.50
2022-10-15T17:46:31.495Z,96285.63
2022-10-15T17:48:58.717Z,96280.41
2022-10-15T17:51:29.255Z,96290.16
2022-10-15T17:53:59.280Z,96285.66
2022-10-15T17:56:28.604Z,96291.63
2022-10-15T17:58:57.299Z,96290.16
2022-10-15T18:01:39.553Z,96287.94
2022-10-15T18:04:12.926Z,96284.94
2022-10-15T18:06:43.481Z,96303.69
2022-10-15T18:09:13.628Z,96311.13
2022-10-15T18:11:40.266Z,96314.50
2022-10-15T18:14:06.875Z,96312.22
2022-10-15T18:16:33.479Z,96306.25
2022-10-15T18:19:00.144Z,96326.09
2022-10-15T18:21:28.344Z,96348.19
2022-10-15T18:23:56.754Z,96338.03
2022-10-15T18:26:23.602Z,96328.28
2022-10-15T18:28:52.061Z,96340.59
2022-10-15T18:31:19.176Z,96335.00
2022-10-15T18:33:48.741Z,96326.41
2022-10-15T18:36:35.406Z,96329.38
2022-10-15T18:39:02.036Z,96329.03
2022-10-15T18:41:32.877Z,96324.53
2022-10-15T18:44:04.847Z,96326.75
2022-10-15T18:46:33.982Z,96333.13
2022-10-15T18:49:01.490Z,96338.38
2022-10-15T18:51:30.851Z,96336.50
2022-10-15T18:53:59.317Z,96333.50
2022-10-15T18:56:26.194Z,96333.13
2022-10-15T18:58:52.742Z,96323.78
2022-10-15T19:01:29.865Z,96321.94
2022-10-15T19:04:02.329Z,96336.88
2022-10-15T19:06:32.040Z,96329.44
2022-10-15T19:08:59.989Z,96338.75
2022-10-15T19:11:30.974Z,96342.16
2022-10-15T19:13:59.142Z,96347.41
2022-10-15T19:16:25.803Z,96355.97
2022-10-15T19:18:52.681Z,96358.94
2022-10-15T19:21:19.335Z,96369.81
2022-10-15T19:23:45.882Z,96376.56
2022-10-15T19:26:15.292Z,96362.69
2022-10-15T19:28:42.046Z,96371.34
2022-10-15T19:31:12.483Z,96371.72
2022-10-15T19:33:39.597Z,96375.09
2022-10-15T19:36:06.477Z,96382.13
2022-10-15T19:38:33.799Z,96375.44
2022-10-15T19:41:04.319Z,96388.56
2022-10-15T19:43:30.975Z,96399.47
2022-10-15T19:46:03.678Z,96413.66
2022-10-15T19:48:31.604Z,96399.09
2022-10-15T19:51:01.480Z,96408.81
2022-10-15T19:53:28.156Z,96407.34
2022-10-15T19:55:57.474Z,96418.19
2022-10-15T19:58:25.010Z,96432.41
2022-10-15T20:00:55.370Z,96436.09
2022-10-15T20:03:23.426Z,96427.50
2022-10-15T20:05:50.444Z,96429.69
2022-10-15T20:08:18.664Z,96420.69
2022-10-15T20:10:47.716Z,96430.53
2022-10-15T20:13:15.609Z,96438.03
2022-10-15T20:15:43.104Z,96433.88
2022-10-15T20:18:10.404Z,96433.50
2022-10-15T20:20:39.205Z,96428.63
2022-10-15T20:23:06.254Z,96417.78
2022-10-15T20:25:32.923Z,96414.38
2022-10-15T20:27:59.615Z,96418.47
2022-10-15T20:30:26.180Z,96430.81
2022-10-15T20:32:52.784Z,96452.53
2022-10-15T20:35:20.359Z,96437.53
2022-10-15T20:37:47.417Z,96440.13
2022-10-15T20:40:14.850Z,96442.69
2022-10-15T20:42:41.513Z,96443.50
2022-10-15T20:45:11.307Z,96433.03
2022-10-15T20:47:42.193Z,96422.56
2022-10-15T20:50:35.680Z,96439.38
2022-10-15T20:53:02.869Z,96426.63
2022-10-15T20:55:29.461Z,96426.97
2022-10-15T20:57:56.117Z,96450.56
2022-10-15T21:00:23.567Z,96443.44
2022-10-15T21:02:50.097Z,96447.56
2022-10-15T21:05:16.666Z,96454.28
2022-10-15T21:07:43.226Z,96477.47
2022-10-15T21:10:09.884Z,96484.97
2022-10-15T21:12:36.475Z,96489.44
2022-10-15T21:15:04.020Z,96490.56
2022-10-15T21:17:30.602Z,96495.31
2022-10-15T21:19:57.149Z,96488.91
2022-10-15T21:22:23.784Z,96492.66
2022-10-15T21:24:50.339Z,96506.50
2022-10-15T21:27:17.068Z,96509.44
2022-10-15T21:29:45.147Z,96495.97
2022-10-15T21:32:11.717Z,96490.31
2022-10-15T21:37:25.468Z,96499.66
2022-10-15T21:39:52.179Z,96509.38
2022-10-15T21:42:18.773Z,96513.50
2022-10-15T21:44:45.487Z,96520.19
2022-10-15T21:47:14.463Z,96528.81
2022-10-15T21:49:42.099Z,96533.25
2022-10-15T21:52:08.637Z,96536.56
2022-10-15T21:54:35.260Z,96539.88
2022-10-15T21:57:01.827Z,96550.34
2022-10-15T21:59:28.382Z,96540.31
2022-10-15T22:01:55.081Z,96555.31
2022-10-15T22:04:21.670Z,96532.06
2022-10-15T22:06:48.229Z,96536.50
2022-10-15T22:09:14.896Z,96542.06
2022-10-15T22:11:41.931Z,96542.06
2022-10-15T22:14:11.710Z,96532.66
2022-10-15T22:16:39.792Z,96543.44
2022-10-15T22:19:08.874Z,96546.53
2022-10-15T22:21:37.875Z,96543.47
2022-10-15T22:24:12.112Z,96552.41
2022-10-15T22:26:41.035Z,96549.53
2022-10-15T22:29:10.978Z,96536.78
2022-10-15T22:31:37.548Z,96538.53
2022-10-15T22:34:04.081Z,96541.19
2022-10-15T22:36:31.463Z,96542.59
2022-10-15T22:39:05.245Z,96534.06
2022-10-15T22:41:36.641Z,96550.00
2022-10-15T22:44:03.823Z,96565.75
2022-10-15T22:46:33.937Z,96551.63
2022-10-15T22:49:00.707Z,96532.47
2022-10-15T22:51:27.529Z,96537.69
2022-10-15T22:53:55.706Z,96527.19
2022-10-15T22:56:22.801Z,96538.69
2022-10-15T22:58:49.691Z,96531.22
2022-10-15T23:01:19.156Z,96545.75
2022-10-15T23:03:49.293Z,96552.41
2022-10-15T23:06:16.614Z,96563.94
2022-10-15T23:08:43.582Z,96576.28
2022-10-15T23:11:19.575Z,96571.41
2022-10-15T23:13:47.430Z,96581.31
2022-10-15T23:16:16.993Z,96576.78
2022-10-15T23:18:44.827Z,96565.91
2022-10-15T23:21:17.209Z,96576.31
2022-10-15T23:23:45.526Z,96575.25
2022-10-15T23:26:15.060Z,96579.81
2022-10-15T23:28:42.903Z,96585.00
2022-10-15T23:31:35.986Z,96579.44
2022-10-15T23:34:03.959Z,96576.00
2022-10-15T23:36:31.486Z,96584.00
2022-10-15T23:39:03.956Z,96567.56
2022-10-15T23:41:31.144Z,96568.38
2022-10-15T23:43:58.068Z,96577.66
2022-10-15T23:46:25.060Z,96580.09
2022-10-15T23:48:51.952Z,96580.06
2022-10-15T23:51:23.624Z,96572.94
2022-10-15T23:53:50.839Z,96574.78
2022-10-15T23:56:17.788Z,96584.81
2022-10-15T23:58:48.112Z,96575.47
